| time (UTC) | temp F | wind direction | speed MPH | gust MPH | rain 1hr in | rain 24hr in | rain mn in | humidity % | barometer mb |
| 20260509223004 | 54 | 142 | 9.0 | 14.0 | 0.00 | 0.00 | 0.00 | 87 | 1025.8 |
| 20260509220004 | 54 | 162 | 6.0 | 11.0 | 0.00 | 0.00 | 0.00 | 86 | 1025.6 |
| 20260509213004 | 50 | 149 | 4.0 | 9.0 | 0.00 | 0.00 | 0.00 | 93 | 1025.4 |
| 20260509210004 | 46 | 142 | 3.0 | 4.0 | 0.00 | 0.00 | 0.00 | 95 | 1024.9 |
| 20260509203004 | 46 | 132 | 3.0 | 4.0 | 0.00 | 0.00 | 0.00 | 95 | 1024.4 |
| 20260509200004 | 45 | 122 | 2.0 | 3.0 | 0.00 | 0.00 | 0.00 | 93 | 1024.2 |
| 20260509193004 | 46 | 124 | 2.0 | 3.0 | 0.00 | 0.00 | 0.00 | 92 | 1023.8 |
| 20260509190004 | 47 | 123 | 2.0 | 3.0 | 0.00 | 0.00 | 0.00 | 93 | 1023.8 |
| 20260509183003 | 47 | 122 | 3.0 | 4.0 | 0.00 | 0.00 | 0.00 | 92 | 1023.5 |
| 20260509180004 | 47 | 145 | 3.0 | 4.0 | 0.00 | 0.00 | 0.00 | 92 | 1023.4 |
| 20260509173004 | 47 | 118 | 2.0 | 4.0 | 0.00 | 0.00 | 0.00 | 92 | 1023.2 |
| 20260509170004 | 48 | 116 | 2.0 | 4.0 | 0.00 | 0.00 | 0.00 | 90 | 1023.1 |
| 20260509163004 | 49 | 149 | 5.0 | 9.0 | 0.00 | 0.00 | 0.00 | 86 | 1023.2 |
| 20260509160003 | 50 | 160 | 5.0 | 9.0 | 0.00 | 0.00 | 0.00 | 84 | 1023.3 |
| 20260509153004 | 49 | 147 | 4.0 | 8.0 | 0.00 | 0.00 | 0.00 | 84 | 1023.3 |
| 20260509150004 | 49 | 126 | 3.0 | 6.0 | 0.00 | 0.00 | 0.00 | 85 | 1023.6 |
| 20260509143004 | 49 | 107 | 2.0 | 3.0 | 0.00 | 0.00 | 0.00 | 84 | 1023.6 |
| 20260509140005 | 49 | 121 | 3.0 | 4.0 | 0.00 | 0.00 | 0.00 | 85 | 1023.6 |
| 20260509133004 | 49 | 118 | 3.0 | 4.0 | 0.00 | 0.00 | 0.00 | 84 | 1023.6 |
| 20260509130004 | 49 | 98 | 2.0 | 4.0 | 0.00 | 0.00 | 0.00 | 83 | 1023.7 |
| 20260509123004 | 49 | 91 | 1.0 | 4.0 | 0.00 | 0.00 | 0.00 | 82 | 1023.9 |
| 20260509120003 | 50 | 94 | 2.0 | 4.0 | 0.00 | 0.00 | 0.00 | 81 | 1023.8 |
| 20260509113003 | 50 | 82 | 2.0 | 4.0 | 0.00 | 0.00 | 0.00 | 80 | 1023.7 |
| 20260509110004 | 50 | 120 | 3.0 | 6.0 | 0.00 | 0.00 | 0.00 | 78 | 1023.6 |
| 20260509103003 | 51 | 154 | 3.0 | 4.0 | 0.00 | 0.00 | 0.00 | 77 | 1023.6 |
| 20260509100004 | 52 | 146 | 4.0 | 8.0 | 0.00 | 0.00 | 0.00 | 75 | 1023.6 |
| 20260509093003 | 52 | 114 | 3.0 | 6.0 | 0.00 | 0.00 | 0.00 | 74 | 1023.3 |
| 20260509090005 | 52 | 140 | 4.0 | 7.0 | 0.00 | 0.00 | 0.00 | 71 | 1022.8 |
| 20260509083004 | 53 | 132 | 3.0 | 7.0 | 0.00 | 0.00 | 0.00 | 68 | 1022.7 |
| 20260509080004 | 54 | 86 | 2.0 | 5.0 | 0.00 | 0.00 | 0.00 | 65 | 1022.3 |
| 20260509073004 | 55 | 116 | 2.0 | 6.0 | 0.00 | 0.00 | 0.00 | 63 | 1021.9 |
| 20260509070004 | 58 | 150 | 4.0 | 8.0 | 0.00 | 0.00 | 0.00 | 57 | 1021.5 |
| 20260509063004 | 60 | 138 | 4.0 | 10.0 | 0.00 | 0.00 | 0.00 | 51 | 1021.3 |
| 20260509060004 | 62 | 134 | 4.0 | 9.0 | 0.00 | 0.00 | 0.00 | 48 | 1021.0 |
| 20260509053004 | 63 | 120 | 3.0 | 8.0 | 0.00 | 0.00 | 0.00 | 46 | 1020.9 |
| 20260509050004 | 63 | 114 | 4.0 | 8.0 | 0.00 | 0.00 | 0.00 | 45 | 1020.9 |
| 20260509043004 | 63 | 126 | 3.0 | 9.0 | 0.00 | 0.00 | 0.00 | 46 | 1020.9 |
| 20260509040004 | 63 | 118 | 4.0 | 12.0 | 0.00 | 0.00 | 0.00 | 46 | 1021.0 |
| 20260509033004 | 62 | 85 | 3.0 | 8.0 | 0.00 | 0.00 | 0.00 | 47 | 1021.0 |
| 20260509030004 | 60 | 125 | 4.0 | 8.0 | 0.00 | 0.00 | 0.00 | 49 | 1021.1 |
| 20260509023004 | 60 | 128 | 5.0 | 10.0 | 0.00 | 0.00 | 0.00 | 49 | 1021.5 |
| 20260509020003 | 59 | 126 | 6.0 | 12.0 | 0.00 | 0.00 | 0.00 | 49 | 1021.9 |
| 20260509013004 | 58 | 127 | 7.0 | 15.0 | 0.00 | 0.00 | 0.00 | 51 | 1022.1 |
| 20260509010004 | 59 | 82 | 6.0 | 11.0 | 0.00 | 0.00 | 0.00 | 50 | 1022.2 |
| 20260509003004 | 58 | 118 | 8.0 | 14.0 | 0.00 | 0.00 | 0.00 | 52 | 1022.3 |
| 20260509000004 | 57 | 84 | 7.0 | 14.0 | 0.00 | 0.00 | 0.00 | 54 | 1022.2 |
| 20260508233004 | 56 | 105 | 7.0 | 12.0 | 0.00 | 0.00 | 0.00 | 56 | 1022.3 |
| 20260508230004 | 54 | 126 | 9.0 | 14.0 | 0.00 | 0.00 | 0.00 | 59 | 1022.0 |